sensor_id;sensor_type;location;lat;lon;timestamp;P1;durP1;ratioP1;P2;durP2;ratioP2
19800;SDS011;10060;48.274;12.214;2023-09-19T00:01:21;2.53;;;1.17;;
19800;SDS011;10060;48.274;12.214;2023-09-19T00:04:23;3.30;;;1.58;;
19800;SDS011;10060;48.274;12.214;2023-09-19T00:07:28;3.03;;;1.30;;
19800;SDS011;10060;48.274;12.214;2023-09-19T00:10:31;1.95;;;1.30;;
19800;SDS011;10060;48.274;12.214;2023-09-19T00:13:36;1.50;;;1.15;;
19800;SDS011;10060;48.274;12.214;2023-09-19T00:16:38;2.00;;;1.50;;
19800;SDS011;10060;48.274;12.214;2023-09-19T00:19:41;1.58;;;1.20;;
19800;SDS011;10060;48.274;12.214;2023-09-19T00:22:46;1.90;;;1.23;;
19800;SDS011;10060;48.274;12.214;2023-09-19T00:25:49;2.53;;;1.23;;
19800;SDS011;10060;48.274;12.214;2023-09-19T00:28:53;5.05;;;1.55;;
19800;SDS011;10060;48.274;12.214;2023-09-19T00:31:57;1.58;;;1.25;;
19800;SDS011;10060;48.274;12.214;2023-09-19T00:34:59;2.25;;;1.15;;
19800;SDS011;10060;48.274;12.214;2023-09-19T00:38:01;2.28;;;1.30;;
19800;SDS011;10060;48.274;12.214;2023-09-19T00:41:03;1.75;;;1.25;;
19800;SDS011;10060;48.274;12.214;2023-09-19T00:44:08;3.50;;;1.58;;
19800;SDS011;10060;48.274;12.214;2023-09-19T00:47:10;2.83;;;1.52;;
19800;SDS011;10060;48.274;12.214;2023-09-19T00:50:16;2.47;;;1.33;;
19800;SDS011;10060;48.274;12.214;2023-09-19T00:53:20;2.08;;;1.30;;
19800;SDS011;10060;48.274;12.214;2023-09-19T00:56:23;1.20;;;1.00;;
19800;SDS011;10060;48.274;12.214;2023-09-19T00:59:27;1.67;;;1.27;;
19800;SDS011;10060;48.274;12.214;2023-09-19T01:02:30;1.98;;;1.67;;
19800;SDS011;10060;48.274;12.214;2023-09-19T01:05:33;1.40;;;1.23;;
19800;SDS011;10060;48.274;12.214;2023-09-19T01:08:35;3.72;;;1.40;;
19800;SDS011;10060;48.274;12.214;2023-09-19T01:11:39;1.98;;;1.60;;
19800;SDS011;10060;48.274;12.214;2023-09-19T01:14:46;1.95;;;1.42;;
19800;SDS011;10060;48.274;12.214;2023-09-19T01:17:59;5.10;;;1.70;;
19800;SDS011;10060;48.274;12.214;2023-09-19T01:21:03;2.65;;;1.55;;
19800;SDS011;10060;48.274;12.214;2023-09-19T01:24:14;3.10;;;1.40;;
19800;SDS011;10060;48.274;12.214;2023-09-19T01:27:25;3.67;;;1.38;;
19800;SDS011;10060;48.274;12.214;2023-09-19T01:30:31;1.80;;;1.60;;
19800;SDS011;10060;48.274;12.214;2023-09-19T01:36:51;4.78;;;1.50;;
19800;SDS011;10060;48.274;12.214;2023-09-19T01:40:00;1.60;;;1.20;;
19800;SDS011;10060;48.274;12.214;2023-09-19T01:43:05;1.52;;;1.17;;
19800;SDS011;10060;48.274;12.214;2023-09-19T01:46:13;3.25;;;1.40;;
19800;SDS011;10060;48.274;12.214;2023-09-19T01:49:20;3.35;;;1.63;;
19800;SDS011;10060;48.274;12.214;2023-09-19T01:52:24;1.98;;;1.30;;
19800;SDS011;10060;48.274;12.214;2023-09-19T01:55:28;3.70;;;1.42;;
19800;SDS011;10060;48.274;12.214;2023-09-19T01:58:32;1.42;;;1.27;;
19800;SDS011;10060;48.274;12.214;2023-09-19T02:01:37;3.42;;;1.25;;
19800;SDS011;10060;48.274;12.214;2023-09-19T02:04:39;1.63;;;1.40;;
19800;SDS011;10060;48.274;12.214;2023-09-19T02:07:42;1.45;;;1.02;;
19800;SDS011;10060;48.274;12.214;2023-09-19T02:10:44;2.28;;;1.33;;
19800;SDS011;10060;48.274;12.214;2023-09-19T02:13:48;2.58;;;1.30;;
19800;SDS011;10060;48.274;12.214;2023-09-19T02:16:55;3.08;;;1.25;;
19800;SDS011;10060;48.274;12.214;2023-09-19T02:19:57;2.92;;;1.38;;
19800;SDS011;10060;48.274;12.214;2023-09-19T02:23:01;4.35;;;1.58;;
19800;SDS011;10060;48.274;12.214;2023-09-19T02:26:03;1.38;;;1.20;;
19800;SDS011;10060;48.274;12.214;2023-09-19T02:29:05;1.38;;;1.27;;
19800;SDS011;10060;48.274;12.214;2023-09-19T02:32:09;2.13;;;1.48;;
19800;SDS011;10060;48.274;12.214;2023-09-19T02:35:11;2.28;;;1.10;;
19800;SDS011;10060;48.274;12.214;2023-09-19T02:38:14;2.47;;;0.95;;
19800;SDS011;10060;48.274;12.214;2023-09-19T02:41:21;2.00;;;1.17;;
19800;SDS011;10060;48.274;12.214;2023-09-19T02:44:23;1.88;;;1.40;;
19800;SDS011;10060;48.274;12.214;2023-09-19T02:47:27;1.38;;;1.27;;
19800;SDS011;10060;48.274;12.214;2023-09-19T02:50:30;2.75;;;1.40;;
19800;SDS011;10060;48.274;12.214;2023-09-19T02:53:34;3.38;;;1.10;;
19800;SDS011;10060;48.274;12.214;2023-09-19T02:56:37;1.17;;;1.08;;
19800;SDS011;10060;48.274;12.214;2023-09-19T02:59:39;3.25;;;1.27;;
19800;SDS011;10060;48.274;12.214;2023-09-19T03:02:43;4.78;;;1.30;;
19800;SDS011;10060;48.274;12.214;2023-09-19T03:05:46;4.70;;;1.40;;
19800;SDS011;10060;48.274;12.214;2023-09-19T03:08:48;1.80;;;1.00;;
19800;SDS011;10060;48.274;12.214;2023-09-19T03:11:51;1.25;;;1.15;;
19800;SDS011;10060;48.274;12.214;2023-09-19T03:14:54;3.80;;;1.67;;
19800;SDS011;10060;48.274;12.214;2023-09-19T03:17:58;3.00;;;1.33;;
19800;SDS011;10060;48.274;12.214;2023-09-19T03:21:00;1.50;;;1.20;;
19800;SDS011;10060;48.274;12.214;2023-09-19T03:24:03;2.50;;;1.10;;
19800;SDS011;10060;48.274;12.214;2023-09-19T03:27:05;1.58;;;1.30;;
19800;SDS011;10060;48.274;12.214;2023-09-19T03:30:09;2.30;;;1.58;;
19800;SDS011;10060;48.274;12.214;2023-09-19T03:33:14;1.40;;;1.30;;
19800;SDS011;10060;48.274;12.214;2023-09-19T03:36:16;2.72;;;1.17;;
19800;SDS011;10060;48.274;12.214;2023-09-19T03:39:19;2.15;;;1.20;;
19800;SDS011;10060;48.274;12.214;2023-09-19T03:42:21;2.92;;;1.58;;
19800;SDS011;10060;48.274;12.214;2023-09-19T03:45:25;2.38;;;1.60;;
19800;SDS011;10060;48.274;12.214;2023-09-19T03:48:29;1.63;;;1.30;;
19800;SDS011;10060;48.274;12.214;2023-09-19T03:51:31;2.47;;;1.23;;
19800;SDS011;10060;48.274;12.214;2023-09-19T03:54:34;2.42;;;1.40;;
19800;SDS011;10060;48.274;12.214;2023-09-19T03:57:37;1.90;;;1.30;;
19800;SDS011;10060;48.274;12.214;2023-09-19T04:00:39;1.83;;;1.33;;
19800;SDS011;10060;48.274;12.214;2023-09-19T04:03:43;1.95;;;1.23;;
19800;SDS011;10060;48.274;12.214;2023-09-19T04:06:48;2.10;;;1.13;;
19800;SDS011;10060;48.274;12.214;2023-09-19T04:09:50;1.95;;;1.15;;
19800;SDS011;10060;48.274;12.214;2023-09-19T04:12:53;1.40;;;1.30;;
19800;SDS011;10060;48.274;12.214;2023-09-19T04:15:56;2.03;;;1.88;;
19800;SDS011;10060;48.274;12.214;2023-09-19T04:18:59;5.00;;;1.30;;
19800;SDS011;10060;48.274;12.214;2023-09-19T04:22:02;1.98;;;1.10;;
19800;SDS011;10060;48.274;12.214;2023-09-19T04:25:04;2.67;;;1.25;;
19800;SDS011;10060;48.274;12.214;2023-09-19T04:28:08;1.40;;;1.10;;
19800;SDS011;10060;48.274;12.214;2023-09-19T04:31:11;2.38;;;1.58;;
19800;SDS011;10060;48.274;12.214;2023-09-19T04:34:15;1.63;;;1.38;;
19800;SDS011;10060;48.274;12.214;2023-09-19T04:37:18;14.13;;;3.70;;
19800;SDS011;10060;48.274;12.214;2023-09-19T04:40:21;7.35;;;2.70;;
19800;SDS011;10060;48.274;12.214;2023-09-19T04:43:26;8.13;;;2.53;;
19800;SDS011;10060;48.274;12.214;2023-09-19T04:46:29;5.68;;;1.67;;
19800;SDS011;10060;48.274;12.214;2023-09-19T04:49:32;5.78;;;2.38;;
19800;SDS011;10060;48.274;12.214;2023-09-19T04:52:35;7.25;;;1.98;;
19800;SDS011;10060;48.274;12.214;2023-09-19T04:55:39;11.13;;;3.10;;
19800;SDS011;10060;48.274;12.214;2023-09-19T04:58:41;14.65;;;3.45;;
19800;SDS011;10060;48.274;12.214;2023-09-19T05:01:43;8.57;;;3.38;;
19800;SDS011;10060;48.274;12.214;2023-09-19T05:04:48;3.25;;;2.03;;
19800;SDS011;10060;48.274;12.214;2023-09-19T05:07:50;5.70;;;2.22;;
19800;SDS011;10060;48.274;12.214;2023-09-19T05:10:54;2.35;;;1.40;;
19800;SDS011;10060;48.274;12.214;2023-09-19T05:13:56;3.30;;;1.80;;
19800;SDS011;10060;48.274;12.214;2023-09-19T05:17:01;2.53;;;1.52;;
19800;SDS011;10060;48.274;12.214;2023-09-19T05:20:06;3.72;;;1.65;;
19800;SDS011;10060;48.274;12.214;2023-09-19T05:23:12;2.90;;;1.85;;
19800;SDS011;10060;48.274;12.214;2023-09-19T05:26:15;4.78;;;1.80;;
19800;SDS011;10060;48.274;12.214;2023-09-19T05:29:18;2.30;;;1.63;;
19800;SDS011;10060;48.274;12.214;2023-09-19T05:32:20;2.70;;;1.83;;
19800;SDS011;10060;48.274;12.214;2023-09-19T05:35:24;3.55;;;1.65;;
19800;SDS011;10060;48.274;12.214;2023-09-19T05:38:27;2.22;;;2.00;;
19800;SDS011;10060;48.274;12.214;2023-09-19T05:41:29;3.03;;;1.85;;
19800;SDS011;10060;48.274;12.214;2023-09-19T05:44:31;2.53;;;1.77;;
19800;SDS011;10060;48.274;12.214;2023-09-19T05:47:33;5.68;;;1.60;;
19800;SDS011;10060;48.274;12.214;2023-09-19T05:50:37;3.38;;;1.98;;
19800;SDS011;10060;48.274;12.214;2023-09-19T05:53:39;3.03;;;1.60;;
19800;SDS011;10060;48.274;12.214;2023-09-19T05:56:43;2.38;;;1.70;;
19800;SDS011;10060;48.274;12.214;2023-09-19T05:59:47;2.13;;;1.40;;
19800;SDS011;10060;48.274;12.214;2023-09-19T06:02:50;3.38;;;1.50;;
19800;SDS011;10060;48.274;12.214;2023-09-19T06:05:54;2.47;;;1.73;;
19800;SDS011;10060;48.274;12.214;2023-09-19T06:08:57;2.42;;;1.40;;
19800;SDS011;10060;48.274;12.214;2023-09-19T06:11:59;2.03;;;1.30;;
19800;SDS011;10060;48.274;12.214;2023-09-19T06:15:05;2.05;;;1.50;;
19800;SDS011;10060;48.274;12.214;2023-09-19T06:18:10;2.88;;;1.25;;
19800;SDS011;10060;48.274;12.214;2023-09-19T06:21:16;1.92;;;1.40;;
19800;SDS011;10060;48.274;12.214;2023-09-19T06:24:18;2.20;;;1.58;;
19800;SDS011;10060;48.274;12.214;2023-09-19T06:27:21;3.40;;;1.42;;
19800;SDS011;10060;48.274;12.214;2023-09-19T06:30:24;2.20;;;1.50;;
19800;SDS011;10060;48.274;12.214;2023-09-19T06:33:26;3.22;;;1.40;;
19800;SDS011;10060;48.274;12.214;2023-09-19T06:36:29;2.20;;;1.55;;
19800;SDS011;10060;48.274;12.214;2023-09-19T06:39:32;3.20;;;1.40;;
19800;SDS011;10060;48.274;12.214;2023-09-19T06:42:34;4.32;;;1.30;;
19800;SDS011;10060;48.274;12.214;2023-09-19T06:45:37;4.78;;;1.58;;
19800;SDS011;10060;48.274;12.214;2023-09-19T06:48:39;2.22;;;1.40;;
19800;SDS011;10060;48.274;12.214;2023-09-19T06:51:45;2.05;;;1.42;;
19800;SDS011;10060;48.274;12.214;2023-09-19T06:54:47;1.42;;;1.30;;
19800;SDS011;10060;48.274;12.214;2023-09-19T06:57:50;2.20;;;1.20;;
19800;SDS011;10060;48.274;12.214;2023-09-19T07:00:54;2.28;;;1.52;;
19800;SDS011;10060;48.274;12.214;2023-09-19T07:03:57;1.60;;;1.30;;
19800;SDS011;10060;48.274;12.214;2023-09-19T07:07:00;1.60;;;1.15;;
19800;SDS011;10060;48.274;12.214;2023-09-19T07:10:03;3.75;;;1.60;;
19800;SDS011;10060;48.274;12.214;2023-09-19T07:13:06;1.15;;;1.00;;
19800;SDS011;10060;48.274;12.214;2023-09-19T07:16:10;2.95;;;1.30;;
19800;SDS011;10060;48.274;12.214;2023-09-19T07:19:27;1.30;;;1.00;;
19800;SDS011;10060;48.274;12.214;2023-09-19T07:22:31;1.63;;;1.00;;
19800;SDS011;10060;48.274;12.214;2023-09-19T07:25:34;2.33;;;1.33;;
19800;SDS011;10060;48.274;12.214;2023-09-19T07:28:37;2.80;;;1.27;;
19800;SDS011;10060;48.274;12.214;2023-09-19T07:31:39;4.78;;;1.05;;
19800;SDS011;10060;48.274;12.214;2023-09-19T07:34:42;1.70;;;1.10;;
19800;SDS011;10060;48.274;12.214;2023-09-19T07:37:46;2.65;;;1.23;;
19800;SDS011;10060;48.274;12.214;2023-09-19T07:40:49;1.77;;;1.02;;
19800;SDS011;10060;48.274;12.214;2023-09-19T07:43:51;2.58;;;1.10;;
19800;SDS011;10060;48.274;12.214;2023-09-19T07:46:54;1.73;;;1.17;;
19800;SDS011;10060;48.274;12.214;2023-09-19T07:49:56;2.80;;;1.10;;
19800;SDS011;10060;48.274;12.214;2023-09-19T07:53:00;2.42;;;1.23;;
19800;SDS011;10060;48.274;12.214;2023-09-19T07:56:05;3.10;;;1.38;;
19800;SDS011;10060;48.274;12.214;2023-09-19T07:59:07;2.55;;;1.20;;
19800;SDS011;10060;48.274;12.214;2023-09-19T08:02:11;3.08;;;1.25;;
19800;SDS011;10060;48.274;12.214;2023-09-19T08:05:15;2.33;;;1.50;;
19800;SDS011;10060;48.274;12.214;2023-09-19T08:08:19;2.15;;;1.23;;
19800;SDS011;10060;48.274;12.214;2023-09-19T08:11:22;1.27;;;1.10;;
19800;SDS011;10060;48.274;12.214;2023-09-19T08:14:24;1.40;;;1.10;;
19800;SDS011;10060;48.274;12.214;2023-09-19T08:17:26;1.90;;;1.02;;
19800;SDS011;10060;48.274;12.214;2023-09-19T08:20:29;2.15;;;1.00;;
19800;SDS011;10060;48.274;12.214;2023-09-19T08:23:32;1.33;;;1.02;;
19800;SDS011;10060;48.274;12.214;2023-09-19T08:26:35;1.33;;;1.00;;
19800;SDS011;10060;48.274;12.214;2023-09-19T08:29:37;2.10;;;1.00;;
19800;SDS011;10060;48.274;12.214;2023-09-19T08:32:40;2.63;;;1.15;;
19800;SDS011;10060;48.274;12.214;2023-09-19T08:35:42;3.63;;;0.95;;
19800;SDS011;10060;48.274;12.214;2023-09-19T08:38:47;2.25;;;1.30;;
19800;SDS011;10060;48.274;12.214;2023-09-19T08:41:49;1.77;;;1.38;;
19800;SDS011;10060;48.274;12.214;2023-09-19T08:44:51;2.80;;;1.05;;
19800;SDS011;10060;48.274;12.214;2023-09-19T08:47:56;3.15;;;1.15;;
19800;SDS011;10060;48.274;12.214;2023-09-19T08:51:03;1.70;;;0.90;;
19800;SDS011;10060;48.274;12.214;2023-09-19T08:54:07;1.42;;;1.00;;
19800;SDS011;10060;48.274;12.214;2023-09-19T08:57:10;1.42;;;0.90;;
19800;SDS011;10060;48.274;12.214;2023-09-19T09:00:18;3.08;;;1.10;;
19800;SDS011;10060;48.274;12.214;2023-09-19T09:03:21;2.83;;;0.80;;
19800;SDS011;10060;48.274;12.214;2023-09-19T09:06:25;2.85;;;1.00;;
19800;SDS011;10060;48.274;12.214;2023-09-19T09:09:29;1.42;;;0.93;;
19800;SDS011;10060;48.274;12.214;2023-09-19T09:12:31;2.67;;;0.98;;
19800;SDS011;10060;48.274;12.214;2023-09-19T09:15:34;2.25;;;1.23;;
19800;SDS011;10060;48.274;12.214;2023-09-19T09:18:37;2.00;;;1.05;;
19800;SDS011;10060;48.274;12.214;2023-09-19T09:21:39;2.10;;;0.70;;
19800;SDS011;10060;48.274;12.214;2023-09-19T09:24:52;1.45;;;0.90;;
19800;SDS011;10060;48.274;12.214;2023-09-19T09:27:58;1.85;;;0.90;;
19800;SDS011;10060;48.274;12.214;2023-09-19T09:31:02;1.80;;;0.90;;
19800;SDS011;10060;48.274;12.214;2023-09-19T09:34:08;1.38;;;0.70;;
19800;SDS011;10060;48.274;12.214;2023-09-19T09:37:14;0.88;;;0.77;;
19800;SDS011;10060;48.274;12.214;2023-09-19T09:40:19;1.33;;;0.73;;
19800;SDS011;10060;48.274;12.214;2023-09-19T09:43:36;0.90;;;0.80;;
19800;SDS011;10060;48.274;12.214;2023-09-19T09:46:42;1.05;;;0.60;;
19800;SDS011;10060;48.274;12.214;2023-09-19T09:50:23;0.80;;;0.70;;
19800;SDS011;10060;48.274;12.214;2023-09-19T09:53:30;1.27;;;0.90;;
19800;SDS011;10060;48.274;12.214;2023-09-19T09:56:34;1.08;;;0.73;;
19800;SDS011;10060;48.274;12.214;2023-09-19T09:59:49;1.02;;;0.70;;
19800;SDS011;10060;48.274;12.214;2023-09-19T10:02:53;1.15;;;0.90;;
19800;SDS011;10060;48.274;12.214;2023-09-19T10:05:55;2.38;;;0.80;;
19800;SDS011;10060;48.274;12.214;2023-09-19T10:09:01;1.20;;;0.80;;
19800;SDS011;10060;48.274;12.214;2023-09-19T10:12:12;2.25;;;0.73;;
19800;SDS011;10060;48.274;12.214;2023-09-19T10:15:15;1.73;;;0.82;;
19800;SDS011;10060;48.274;12.214;2023-09-19T10:18:19;2.30;;;0.90;;
19800;SDS011;10060;48.274;12.214;2023-09-19T10:21:21;1.25;;;0.85;;
19800;SDS011;10060;48.274;12.214;2023-09-19T10:24:24;3.78;;;1.05;;
19800;SDS011;10060;48.274;12.214;2023-09-19T10:27:29;1.02;;;0.90;;
19800;SDS011;10060;48.274;12.214;2023-09-19T10:30:37;1.23;;;0.82;;
19800;SDS011;10060;48.274;12.214;2023-09-19T10:33:43;2.35;;;0.85;;
19800;SDS011;10060;48.274;12.214;2023-09-19T10:36:46;1.70;;;0.90;;
19800;SDS011;10060;48.274;12.214;2023-09-19T10:39:48;1.10;;;0.70;;
19800;SDS011;10060;48.274;12.214;2023-09-19T10:42:53;1.67;;;0.75;;
19800;SDS011;10060;48.274;12.214;2023-09-19T10:45:57;0.93;;;0.73;;
19800;SDS011;10060;48.274;12.214;2023-09-19T10:49:04;1.42;;;0.88;;
19800;SDS011;10060;48.274;12.214;2023-09-19T10:52:06;1.00;;;0.85;;
19800;SDS011;10060;48.274;12.214;2023-09-19T10:55:14;1.73;;;1.00;;
19800;SDS011;10060;48.274;12.214;2023-09-19T10:58:28;1.60;;;0.70;;
19800;SDS011;10060;48.274;12.214;2023-09-19T11:01:43;1.58;;;0.93;;
19800;SDS011;10060;48.274;12.214;2023-09-19T11:04:47;1.30;;;0.70;;
19800;SDS011;10060;48.274;12.214;2023-09-19T11:07:59;2.45;;;0.95;;
19800;SDS011;10060;48.274;12.214;2023-09-19T11:11:05;1.92;;;0.80;;
19800;SDS011;10060;48.274;12.214;2023-09-19T11:14:38;0.98;;;0.85;;
19800;SDS011;10060;48.274;12.214;2023-09-19T11:17:42;2.10;;;0.77;;
19800;SDS011;10060;48.274;12.214;2023-09-19T11:20:46;1.02;;;0.90;;
19800;SDS011;10060;48.274;12.214;2023-09-19T11:24:05;2.03;;;0.90;;
19800;SDS011;10060;48.274;12.214;2023-09-19T11:27:28;1.15;;;0.88;;
19800;SDS011;10060;48.274;12.214;2023-09-19T11:30:34;3.08;;;0.93;;
19800;SDS011;10060;48.274;12.214;2023-09-19T11:33:37;2.72;;;0.90;;
19800;SDS011;10060;48.274;12.214;2023-09-19T11:36:46;3.08;;;1.30;;
19800;SDS011;10060;48.274;12.214;2023-09-19T11:43:29;2.92;;;1.33;;
19800;SDS011;10060;48.274;12.214;2023-09-19T11:46:51;1.40;;;1.20;;
19800;SDS011;10060;48.274;12.214;2023-09-19T11:49:53;1.20;;;1.10;;
19800;SDS011;10060;48.274;12.214;2023-09-19T11:52:56;2.90;;;1.30;;
19800;SDS011;10060;48.274;12.214;2023-09-19T11:55:59;1.10;;;0.98;;
19800;SDS011;10060;48.274;12.214;2023-09-19T11:59:03;2.33;;;1.08;;
19800;SDS011;10060;48.274;12.214;2023-09-19T12:02:06;1.50;;;1.08;;
19800;SDS011;10060;48.274;12.214;2023-09-19T12:05:09;2.50;;;1.10;;
19800;SDS011;10060;48.274;12.214;2023-09-19T12:08:14;1.50;;;0.70;;
19800;SDS011;10060;48.274;12.214;2023-09-19T12:11:17;1.67;;;1.27;;
19800;SDS011;10060;48.274;12.214;2023-09-19T12:14:25;4.18;;;1.17;;
19800;SDS011;10060;48.274;12.214;2023-09-19T12:17:34;0.98;;;0.80;;
19800;SDS011;10060;48.274;12.214;2023-09-19T12:20:43;0.73;;;0.68;;
19800;SDS011;10060;48.274;12.214;2023-09-19T12:23:56;1.00;;;0.90;;
19800;SDS011;10060;48.274;12.214;2023-09-19T12:27:01;1.15;;;0.82;;
19800;SDS011;10060;48.274;12.214;2023-09-19T12:30:07;1.75;;;0.90;;
19800;SDS011;10060;48.274;12.214;2023-09-19T12:33:14;0.80;;;0.75;;
19800;SDS011;10060;48.274;12.214;2023-09-19T12:36:19;0.85;;;0.77;;
19800;SDS011;10060;48.274;12.214;2023-09-19T12:39:25;12.80;;;1.20;;
19800;SDS011;10060;48.274;12.214;2023-09-19T12:42:29;1.77;;;0.73;;
19800;SDS011;10060;48.274;12.214;2023-09-19T12:45:36;0.90;;;0.80;;
19800;SDS011;10060;48.274;12.214;2023-09-19T12:48:39;1.75;;;0.80;;
19800;SDS011;10060;48.274;12.214;2023-09-19T12:51:44;1.05;;;0.80;;
19800;SDS011;10060;48.274;12.214;2023-09-19T12:54:47;2.55;;;0.95;;
19800;SDS011;10060;48.274;12.214;2023-09-19T12:58:02;1.73;;;0.90;;
19800;SDS011;10060;48.274;12.214;2023-09-19T13:01:14;2.22;;;0.90;;
19800;SDS011;10060;48.274;12.214;2023-09-19T13:04:17;29.40;;;2.05;;
19800;SDS011;10060;48.274;12.214;2023-09-19T13:17:12;4.75;;;1.00;;
19800;SDS011;10060;48.274;12.214;2023-09-19T13:20:22;2.65;;;1.10;;
19800;SDS011;10060;48.274;12.214;2023-09-19T13:23:28;2.47;;;1.27;;
19800;SDS011;10060;48.274;12.214;2023-09-19T13:26:31;3.60;;;1.33;;
19800;SDS011;10060;48.274;12.214;2023-09-19T13:29:34;1.67;;;1.00;;
19800;SDS011;10060;48.274;12.214;2023-09-19T13:32:37;1.02;;;0.75;;
19800;SDS011;10060;48.274;12.214;2023-09-19T13:35:40;1.17;;;0.88;;
19800;SDS011;10060;48.274;12.214;2023-09-19T13:38:43;1.40;;;0.90;;
19800;SDS011;10060;48.274;12.214;2023-09-19T13:41:47;1.00;;;0.90;;
19800;SDS011;10060;48.274;12.214;2023-09-19T13:44:49;1.23;;;0.90;;
19800;SDS011;10060;48.274;12.214;2023-09-19T13:47:54;1.83;;;0.95;;
19800;SDS011;10060;48.274;12.214;2023-09-19T13:50:56;1.48;;;0.90;;
19800;SDS011;10060;48.274;12.214;2023-09-19T13:54:00;1.08;;;0.70;;
19800;SDS011;10060;48.274;12.214;2023-09-19T13:57:02;1.40;;;1.02;;
19800;SDS011;10060;48.274;12.214;2023-09-19T14:00:05;1.05;;;0.95;;
19800;SDS011;10060;48.274;12.214;2023-09-19T14:03:11;1.15;;;0.90;;
19800;SDS011;10060;48.274;12.214;2023-09-19T14:06:14;0.90;;;0.80;;
19800;SDS011;10060;48.274;12.214;2023-09-19T14:09:16;1.15;;;0.90;;
19800;SDS011;10060;48.274;12.214;2023-09-19T14:12:19;2.50;;;0.80;;
19800;SDS011;10060;48.274;12.214;2023-09-19T14:15:21;1.27;;;1.00;;
19800;SDS011;10060;48.274;12.214;2023-09-19T14:18:30;2.55;;;1.10;;
19800;SDS011;10060;48.274;12.214;2023-09-19T14:21:32;1.58;;;1.10;;
19800;SDS011;10060;48.274;12.214;2023-09-19T14:24:36;3.08;;;1.20;;
19800;SDS011;10060;48.274;12.214;2023-09-19T14:27:38;1.27;;;1.02;;
19800;SDS011;10060;48.274;12.214;2023-09-19T14:30:41;0.88;;;0.88;;
19800;SDS011;10060;48.274;12.214;2023-09-19T14:33:45;1.55;;;1.30;;
19800;SDS011;10060;48.274;12.214;2023-09-19T14:36:47;3.55;;;1.30;;
19800;SDS011;10060;48.274;12.214;2023-09-19T14:39:49;4.00;;;1.20;;
19800;SDS011;10060;48.274;12.214;2023-09-19T14:42:51;1.58;;;0.80;;
19800;SDS011;10060;48.274;12.214;2023-09-19T14:45:53;1.52;;;1.02;;
19800;SDS011;10060;48.274;12.214;2023-09-19T14:48:58;2.90;;;1.05;;
19800;SDS011;10060;48.274;12.214;2023-09-19T14:52:01;1.65;;;1.10;;
19800;SDS011;10060;48.274;12.214;2023-09-19T14:55:04;1.13;;;0.93;;
19800;SDS011;10060;48.274;12.214;2023-09-19T14:58:06;1.70;;;0.90;;
19800;SDS011;10060;48.274;12.214;2023-09-19T15:01:09;9.40;;;3.00;;
19800;SDS011;10060;48.274;12.214;2023-09-19T15:04:13;3.38;;;1.40;;
19800;SDS011;10060;48.274;12.214;2023-09-19T15:07:15;2.75;;;1.20;;
19800;SDS011;10060;48.274;12.214;2023-09-19T15:10:17;1.33;;;0.90;;
19800;SDS011;10060;48.274;12.214;2023-09-19T15:13:20;1.05;;;0.80;;
19800;SDS011;10060;48.274;12.214;2023-09-19T15:16:22;1.73;;;0.85;;
19800;SDS011;10060;48.274;12.214;2023-09-19T15:19:25;1.15;;;0.80;;
19800;SDS011;10060;48.274;12.214;2023-09-19T15:22:28;2.53;;;1.25;;
19800;SDS011;10060;48.274;12.214;2023-09-19T15:25:30;1.50;;;0.82;;
19800;SDS011;10060;48.274;12.214;2023-09-19T15:28:35;1.40;;;0.90;;
19800;SDS011;10060;48.274;12.214;2023-09-19T15:31:37;1.85;;;1.00;;
19800;SDS011;10060;48.274;12.214;2023-09-19T15:34:41;1.23;;;0.80;;
19800;SDS011;10060;48.274;12.214;2023-09-19T15:37:43;1.50;;;1.17;;
19800;SDS011;10060;48.274;12.214;2023-09-19T15:40:46;4.32;;;1.10;;
19800;SDS011;10060;48.274;12.214;2023-09-19T15:43:49;1.35;;;1.05;;
19800;SDS011;10060;48.274;12.214;2023-09-19T15:46:51;2.08;;;0.80;;
19800;SDS011;10060;48.274;12.214;2023-09-19T15:49:54;2.03;;;0.90;;
19800;SDS011;10060;48.274;12.214;2023-09-19T15:52:56;1.35;;;0.85;;
19800;SDS011;10060;48.274;12.214;2023-09-19T15:55:59;2.05;;;0.80;;
19800;SDS011;10060;48.274;12.214;2023-09-19T15:59:07;0.95;;;0.88;;
19800;SDS011;10060;48.274;12.214;2023-09-19T16:02:12;1.15;;;0.73;;
19800;SDS011;10060;48.274;12.214;2023-09-19T16:05:15;1.10;;;0.90;;
19800;SDS011;10060;48.274;12.214;2023-09-19T16:08:17;2.05;;;1.05;;
19800;SDS011;10060;48.274;12.214;2023-09-19T16:11:20;1.35;;;0.82;;
19800;SDS011;10060;48.274;12.214;2023-09-19T16:14:22;31.48;;;2.13;;
19800;SDS011;10060;48.274;12.214;2023-09-19T16:17:24;2.03;;;1.10;;
19800;SDS011;10060;48.274;12.214;2023-09-19T16:20:28;2.58;;;1.13;;
19800;SDS011;10060;48.274;12.214;2023-09-19T16:23:33;0.93;;;0.80;;
19800;SDS011;10060;48.274;12.214;2023-09-19T16:26:36;2.65;;;0.90;;
19800;SDS011;10060;48.274;12.214;2023-09-19T16:29:38;3.42;;;1.17;;
19800;SDS011;10060;48.274;12.214;2023-09-19T16:32:40;10.73;;;1.10;;
19800;SDS011;10060;48.274;12.214;2023-09-19T16:35:44;2.45;;;1.23;;
19800;SDS011;10060;48.274;12.214;2023-09-19T16:38:47;1.10;;;1.00;;
19800;SDS011;10060;48.274;12.214;2023-09-19T16:41:49;3.28;;;1.30;;
19800;SDS011;10060;48.274;12.214;2023-09-19T16:44:52;1.80;;;1.23;;
19800;SDS011;10060;48.274;12.214;2023-09-19T16:47:54;2.65;;;1.30;;
19800;SDS011;10060;48.274;12.214;2023-09-19T16:51:00;1.63;;;1.20;;
19800;SDS011;10060;48.274;12.214;2023-09-19T16:54:03;4.80;;;1.30;;
19800;SDS011;10060;48.274;12.214;2023-09-19T16:57:05;2.63;;;1.20;;
19800;SDS011;10060;48.274;12.214;2023-09-19T17:00:08;4.70;;;1.58;;
19800;SDS011;10060;48.274;12.214;2023-09-19T17:03:11;2.10;;;1.40;;
19800;SDS011;10060;48.274;12.214;2023-09-19T17:06:16;3.83;;;1.38;;
19800;SDS011;10060;48.274;12.214;2023-09-19T17:09:21;2.83;;;1.50;;
19800;SDS011;10060;48.274;12.214;2023-09-19T17:12:24;3.65;;;1.50;;
19800;SDS011;10060;48.274;12.214;2023-09-19T17:15:26;1.20;;;1.10;;
19800;SDS011;10060;48.274;12.214;2023-09-19T17:18:31;3.47;;;1.33;;
19800;SDS011;10060;48.274;12.214;2023-09-19T17:21:35;4.75;;;1.20;;
19800;SDS011;10060;48.274;12.214;2023-09-19T17:24:37;2.40;;;1.40;;
19800;SDS011;10060;48.274;12.214;2023-09-19T17:27:39;3.08;;;1.35;;
19800;SDS011;10060;48.274;12.214;2023-09-19T17:30:43;3.55;;;1.98;;
19800;SDS011;10060;48.274;12.214;2023-09-19T17:33:45;3.50;;;2.13;;
19800;SDS011;10060;48.274;12.214;2023-09-19T17:36:49;2.33;;;1.60;;
19800;SDS011;10060;48.274;12.214;2023-09-19T17:39:52;1.83;;;1.40;;
19800;SDS011;10060;48.274;12.214;2023-09-19T17:42:54;1.67;;;1.58;;
19800;SDS011;10060;48.274;12.214;2023-09-19T17:45:56;2.80;;;1.50;;
19800;SDS011;10060;48.274;12.214;2023-09-19T17:48:58;2.08;;;1.52;;
19800;SDS011;10060;48.274;12.214;2023-09-19T17:52:02;1.58;;;1.40;;
19800;SDS011;10060;48.274;12.214;2023-09-19T17:55:05;1.55;;;1.30;;
19800;SDS011;10060;48.274;12.214;2023-09-19T17:58:07;1.50;;;1.40;;
19800;SDS011;10060;48.274;12.214;2023-09-19T18:01:09;1.63;;;1.38;;
19800;SDS011;10060;48.274;12.214;2023-09-19T18:04:12;2.97;;;1.30;;
19800;SDS011;10060;48.274;12.214;2023-09-19T18:07:15;4.28;;;1.40;;
19800;SDS011;10060;48.274;12.214;2023-09-19T18:10:17;2.47;;;1.77;;
19800;SDS011;10060;48.274;12.214;2023-09-19T18:13:19;2.15;;;1.75;;
19800;SDS011;10060;48.274;12.214;2023-09-19T18:16:22;2.85;;;1.67;;
19800;SDS011;10060;48.274;12.214;2023-09-19T18:19:24;2.78;;;2.00;;
19800;SDS011;10060;48.274;12.214;2023-09-19T18:22:28;7.63;;;3.20;;
19800;SDS011;10060;48.274;12.214;2023-09-19T18:25:33;9.77;;;4.50;;
19800;SDS011;10060;48.274;12.214;2023-09-19T18:28:37;5.15;;;2.85;;